Time;durP1;ratioP1;P1;durP2;ratioP2;P2;SDS_P1;SDS_P2;PMS_P1;PMS_P2;Temp;Humidity;BMP_temperature;BMP_pressure;BME280_temperature;BME280_humidity;BME280_pressure;Samples;Min_cycle;Max_cycle;Signal;HPM_P1;HPM_P2
2022/11/22 00:02:09;;;;;;;23.17;7.20;;;;;;;;;;4869820;29;20210;-77
2022/11/22 00:04:35;;;;;;;17.13;6.75;;;;;;;;;;4861421;29;20089;-78
2022/11/22 00:07:02;;;;;;;19.63;7.57;;;;;;;;;;4839686;29;20062;-79
2022/11/22 00:09:28;;;;;;;14.63;6.30;;;;;;;;;;4865644;29;20058;-79
2022/11/22 00:11:55;;;;;;;19.80;6.95;;;;;;;;;;4866206;29;20520;-79
2022/11/22 00:14:22;;;;;;;21.98;7.82;;;;;;;;;;4872336;29;20132;-79
2022/11/22 00:16:48;;;;;;;15.98;7.75;;;;;;;;;;4875273;29;20553;-78
2022/11/22 00:19:15;;;;;;;22.95;7.88;;;;;;;;;;4872033;29;20057;-79
2022/11/22 00:21:41;;;;;;;27.15;8.43;;;;;;;;;;4856638;29;20068;-79
2022/11/22 00:24:07;;;;;;;22.08;7.45;;;;;;;;;;4855979;29;20054;-78
2022/11/22 00:26:34;;;;;;;16.42;7.20;;;;;;;;;;4856721;29;20148;-77
2022/11/22 00:29:00;;;;;;;17.75;7.55;;;;;;;;;;4866686;29;20144;-78
2022/11/22 00:31:26;;;;;;;18.70;7.50;;;;;;;;;;4845724;29;20064;-77
2022/11/22 00:33:53;;;;;;;19.95;6.78;;;;;;;;;;4856412;29;20140;-79
2022/11/22 00:36:19;;;;;;;16.83;7.03;;;;;;;;;;4852656;29;20252;-79
2022/11/22 00:38:45;;;;;;;19.23;6.70;;;;;;;;;;4858248;29;20056;-78
2022/11/22 00:41:12;;;;;;;20.92;7.15;;;;;;;;;;4857173;29;20521;-79
2022/11/22 00:43:38;;;;;;;19.25;7.45;;;;;;;;;;4856310;29;20038;-79
2022/11/22 00:46:04;;;;;;;16.90;6.82;;;;;;;;;;4846804;29;20070;-78
2022/11/22 00:48:31;;;;;;;20.05;7.45;;;;;;;;;;4839879;29;20062;-78
2022/11/22 00:50:57;;;;;;;17.48;6.95;;;;;;;;;;4857374;29;20060;-78
2022/11/22 00:53:24;;;;;;;18.42;6.68;;;;;;;;;;4872999;29;20073;-79
2022/11/22 00:55:50;;;;;;;21.58;7.07;;;;;;;;;;4871939;29;20072;-79
2022/11/22 00:58:17;;;;;;;22.48;7.07;;;;;;;;;;4862047;29;20184;-78
2022/11/22 01:00:43;;;;;;;17.08;7.20;;;;;;;;;;4875954;29;20125;-78
2022/11/22 01:03:10;;;;;;;22.08;6.93;;;;;;;;;;4887074;29;20041;-78
2022/11/22 01:05:37;;;;;;;17.83;6.90;;;;;;;;;;4890752;29;20296;-77
2022/11/22 01:08:03;;;;;;;21.45;7.82;;;;;;;;;;4887065;29;20149;-79
2022/11/22 01:10:29;;;;;;;17.50;6.57;;;;;;;;;;4885292;29;20068;-79
2022/11/22 01:12:56;;;;;;;20.30;6.93;;;;;;;;;;4892852;29;20057;-78
2022/11/22 01:15:23;;;;;;;16.08;7.07;;;;;;;;;;4892611;29;20148;-78
2022/11/22 01:17:49;;;;;;;21.50;7.15;;;;;;;;;;4875810;29;20513;-78
2022/11/22 01:20:15;;;;;;;19.90;6.93;;;;;;;;;;4877427;29;20126;-77
2022/11/22 01:22:42;;;;;;;16.58;6.30;;;;;;;;;;4873764;29;20044;-78
2022/11/22 01:25:08;;;;;;;17.92;6.88;;;;;;;;;;4864031;29;20148;-78
2022/11/22 01:27:35;;;;;;;14.75;6.53;;;;;;;;;;4891552;29;20083;-78
2022/11/22 01:30:01;;;;;;;20.67;6.50;;;;;;;;;;4876284;29;20053;-77
2022/11/22 01:32:28;;;;;;;20.23;7.05;;;;;;;;;;4892316;29;20540;-78
2022/11/22 01:34:54;;;;;;;21.30;6.80;;;;;;;;;;4881787;29;20057;-79
2022/11/22 01:37:20;;;;;;;19.75;6.40;;;;;;;;;;4885617;29;20053;-79
2022/11/22 01:39:47;;;;;;;17.15;6.30;;;;;;;;;;4892187;29;20072;-79
2022/11/22 01:42:13;;;;;;;19.40;6.75;;;;;;;;;;4874280;29;20060;-78
2022/11/22 01:44:41;;;;;;;15.50;6.53;;;;;;;;;;4860738;29;20049;-78
2022/11/22 01:47:12;;;;;;;17.70;6.55;;;;;;;;;;4873725;29;20122;-79
2022/11/22 01:49:40;;;;;;;16.42;6.88;;;;;;;;;;4879402;29;20067;-78
2022/11/22 01:52:16;;;;;;;20.85;6.72;;;;;;;;;;4890726;29;20543;-78
2022/11/22 01:54:44;;;;;;;22.73;7.10;;;;;;;;;;4874888;29;20044;-79
2022/11/22 01:57:14;;;;;;;17.90;6.68;;;;;;;;;;4891906;29;20053;-79
2022/11/22 01:59:43;;;;;;;15.65;6.22;;;;;;;;;;4856826;29;20061;-78
2022/11/22 02:02:11;;;;;;;20.90;7.43;;;;;;;;;;4853518;29;20053;-78
2022/11/22 02:04:38;;;;;;;16.08;6.35;;;;;;;;;;4837334;29;20054;-78
2022/11/22 02:07:08;;;;;;;17.48;6.50;;;;;;;;;;4838282;29;20053;-79
2022/11/22 02:09:35;;;;;;;18.15;6.55;;;;;;;;;;4857778;29;20069;-79
2022/11/22 02:12:03;;;;;;;18.35;6.32;;;;;;;;;;4845171;29;20490;-79
2022/11/22 02:14:30;;;;;;;21.50;6.38;;;;;;;;;;4860001;29;20110;-79
2022/11/22 02:16:56;;;;;;;19.50;6.55;;;;;;;;;;4858152;29;20061;-78
2022/11/22 02:19:32;;;;;;;15.77;6.30;;;;;;;;;;4870964;29;20350;-79
2022/11/22 02:22:02;;;;;;;18.75;6.65;;;;;;;;;;4872918;29;20061;-77
2022/11/22 02:24:36;;;;;;;18.95;6.75;;;;;;;;;;4851946;29;20117;-79
2022/11/22 02:27:03;;;;;;;22.50;6.30;;;;;;;;;;4870796;29;20061;-79
2022/11/22 02:29:30;;;;;;;15.00;6.57;;;;;;;;;;4856003;29;20828;-78
2022/11/22 02:31:57;;;;;;;18.98;6.22;;;;;;;;;;4873288;29;20064;-78
2022/11/22 02:34:23;;;;;;;14.80;5.95;;;;;;;;;;4853949;29;20073;-79
2022/11/22 02:36:51;;;;;;;18.98;5.70;;;;;;;;;;4853966;29;20066;-78
2022/11/22 02:39:24;;;;;;;14.60;4.65;;;;;;;;;;4866693;29;20140;-79
2022/11/22 02:41:52;;;;;;;13.77;4.78;;;;;;;;;;4859790;29;20057;-79
2022/11/22 02:44:19;;;;;;;18.55;4.97;;;;;;;;;;4854589;29;20058;-78
2022/11/22 02:46:46;;;;;;;12.68;5.28;;;;;;;;;;4873400;29;20068;-78
2022/11/22 02:49:15;;;;;;;16.85;4.88;;;;;;;;;;4850287;29;20061;-79
2022/11/22 02:51:41;;;;;;;16.83;4.50;;;;;;;;;;4855178;29;20126;-79
2022/11/22 02:54:07;;;;;;;23.77;4.50;;;;;;;;;;4868900;29;20494;-79
2022/11/22 02:56:34;;;;;;;18.80;4.47;;;;;;;;;;4854899;29;20488;-79
2022/11/22 02:59:00;;;;;;;14.32;3.85;;;;;;;;;;4880810;29;20061;-78
2022/11/22 03:01:27;;;;;;;12.65;3.78;;;;;;;;;;4873909;29;20237;-77
2022/11/22 03:03:54;;;;;;;19.48;3.78;;;;;;;;;;4881016;29;20536;-79
2022/11/22 03:06:20;;;;;;;19.42;4.05;;;;;;;;;;4890558;29;20053;-77
2022/11/22 03:08:47;;;;;;;18.42;3.33;;;;;;;;;;4889539;29;20113;-78
2022/11/22 03:11:21;;;;;;;19.27;4.43;;;;;;;;;;4878473;29;20082;-79
2022/11/22 03:13:47;;;;;;;12.88;3.60;;;;;;;;;;4873452;29;20385;-78
2022/11/22 03:16:13;;;;;;;19.85;3.45;;;;;;;;;;4855357;29;20145;-79
2022/11/22 03:18:40;;;;;;;17.30;3.65;;;;;;;;;;4880883;29;20064;-79
2022/11/22 03:21:07;;;;;;;25.13;4.03;;;;;;;;;;4873138;29;20049;-78
2022/11/22 03:23:34;;;;;;;17.63;3.33;;;;;;;;;;4875555;29;20100;-79
2022/11/22 03:26:06;;;;;;;17.08;3.53;;;;;;;;;;4870556;29;20136;-79
2022/11/22 03:28:32;;;;;;;14.90;3.20;;;;;;;;;;4875537;29;20224;-78
2022/11/22 03:30:59;;;;;;;13.77;3.13;;;;;;;;;;4874604;29;20956;-79
2022/11/22 03:33:25;;;;;;;18.27;3.45;;;;;;;;;;4882908;29;20447;-78
2022/11/22 03:35:55;;;;;;;20.45;3.80;;;;;;;;;;4885993;29;20144;-78
2022/11/22 03:38:22;;;;;;;11.32;2.70;;;;;;;;;;4877412;29;20112;-78
2022/11/22 03:40:48;;;;;;;10.10;3.03;;;;;;;;;;4876657;29;20057;-78
2022/11/22 03:43:14;;;;;;;13.73;2.75;;;;;;;;;;4890015;29;20045;-78
2022/11/22 03:45:45;;;;;;;15.25;2.50;;;;;;;;;;4877736;29;20636;-79
2022/11/22 03:48:11;;;;;;;9.85;2.60;;;;;;;;;;4877296;29;20153;-79
2022/11/22 03:50:38;;;;;;;21.05;2.28;;;;;;;;;;4877227;29;20060;-78
2022/11/22 03:53:05;;;;;;;16.08;2.42;;;;;;;;;;4886876;29;20500;-78
2022/11/22 03:55:31;;;;;;;15.85;2.70;;;;;;;;;;4875984;29;20523;-79
2022/11/22 03:57:57;;;;;;;13.88;2.40;;;;;;;;;;4873934;29;20065;-79
2022/11/22 04:00:24;;;;;;;16.23;2.60;;;;;;;;;;4891366;29;20063;-78
2022/11/22 04:02:50;;;;;;;18.38;2.55;;;;;;;;;;4867665;29;20072;-78
2022/11/22 04:05:17;;;;;;;10.38;2.47;;;;;;;;;;4856949;29;20140;-78
2022/11/22 04:07:43;;;;;;;11.02;2.13;;;;;;;;;;4893463;29;20069;-79
2022/11/22 04:10:09;;;;;;;14.02;2.30;;;;;;;;;;4880786;29;20092;-78
2022/11/22 04:12:35;;;;;;;18.00;2.20;;;;;;;;;;4876929;29;20064;-78
2022/11/22 04:15:05;;;;;;;21.27;2.78;;;;;;;;;;4876807;29;20065;-78
2022/11/22 04:17:39;;;;;;;13.45;2.70;;;;;;;;;;4890840;29;20091;-79
2022/11/22 04:22:58;;;;;;;20.90;2.50;;;;;;;;;;4889198;29;20061;-79
2022/11/22 04:25:26;;;;;;;19.95;3.38;;;;;;;;;;4874233;29;20634;-79
2022/11/22 04:27:52;;;;;;;19.67;2.85;;;;;;;;;;4874473;29;20067;-78
2022/11/22 04:30:19;;;;;;;10.50;1.83;;;;;;;;;;4890393;29;20489;-79
2022/11/22 04:32:46;;;;;;;15.68;2.15;;;;;;;;;;4860356;29;20116;-78
2022/11/22 04:35:13;;;;;;;14.45;2.58;;;;;;;;;;4873969;29;20259;-78
2022/11/22 04:37:40;;;;;;;10.00;2.00;;;;;;;;;;4875943;29;20136;-79
2022/11/22 04:40:07;;;;;;;17.58;2.50;;;;;;;;;;4874508;29;20068;-78
2022/11/22 04:45:18;;;;;;;14.70;2.40;;;;;;;;;;4892061;29;20048;-79
2022/11/22 04:48:00;;;;;;;18.83;2.55;;;;;;;;;;4891648;29;20057;-79
2022/11/22 04:53:13;;;;;;;12.75;1.77;;;;;;;;;;4873417;29;20536;-79
2022/11/22 04:55:39;;;;;;;11.48;2.10;;;;;;;;;;4872694;29;20069;-79
2022/11/22 04:58:06;;;;;;;10.20;2.33;;;;;;;;;;4857307;29;20144;-79
2022/11/22 05:00:32;;;;;;;17.33;2.58;;;;;;;;;;4889295;29;20080;-78
2022/11/22 05:02:59;;;;;;;12.77;1.98;;;;;;;;;;4856363;29;20571;-78
2022/11/22 05:05:26;;;;;;;11.70;2.33;;;;;;;;;;4856585;29;20072;-77
2022/11/22 05:07:52;;;;;;;13.55;2.42;;;;;;;;;;4884892;29;20251;-78
2022/11/22 05:10:19;;;;;;;12.98;2.00;;;;;;;;;;4890037;29;20056;-79
2022/11/22 05:12:51;;;;;;;16.50;1.95;;;;;;;;;;4877979;29;20566;-78
2022/11/22 05:15:18;;;;;;;12.75;2.38;;;;;;;;;;4872742;29;20057;-78
2022/11/22 05:17:44;;;;;;;19.95;2.25;;;;;;;;;;4877992;29;20133;-78
2022/11/22 05:20:10;;;;;;;12.77;2.60;;;;;;;;;;4886785;29;20057;-78
2022/11/22 05:25:22;;;;;;;8.50;1.70;;;;;;;;;;4883533;29;20063;-78
2022/11/22 05:27:54;;;;;;;17.83;2.13;;;;;;;;;;4877782;29;20532;-79
2022/11/22 05:30:20;;;;;;;14.10;2.28;;;;;;;;;;4869878;29;20540;-78
2022/11/22 05:32:46;;;;;;;17.05;2.58;;;;;;;;;;4887923;29;20083;-78
2022/11/22 05:35:13;;;;;;;12.50;2.42;;;;;;;;;;4882548;29;20159;-78
2022/11/22 05:37:39;;;;;;;12.65;1.95;;;;;;;;;;4871621;29;20964;-78
2022/11/22 05:40:06;;;;;;;15.73;2.53;;;;;;;;;;4866917;29;20551;-78
2022/11/22 05:42:33;;;;;;;16.55;1.70;;;;;;;;;;4858767;29;20057;-78
2022/11/22 05:44:59;;;;;;;15.82;2.22;;;;;;;;;;4859612;29;20064;-78
2022/11/22 05:47:25;;;;;;;12.63;2.00;;;;;;;;;;4871234;29;20111;-78
2022/11/22 05:49:52;;;;;;;8.45;2.08;;;;;;;;;;4886296;29;20055;-78
2022/11/22 05:52:18;;;;;;;13.10;2.10;;;;;;;;;;4871627;29;20060;-78
2022/11/22 05:54:44;;;;;;;10.82;2.15;;;;;;;;;;4858004;29;20061;-78
2022/11/22 05:57:11;;;;;;;10.43;1.92;;;;;;;;;;4870589;29;20568;-78
2022/11/22 05:59:37;;;;;;;12.38;2.53;;;;;;;;;;4868332;29;20064;-78
2022/11/22 06:02:09;;;;;;;9.55;1.88;;;;;;;;;;4869847;29;21124;-78
2022/11/22 06:04:36;;;;;;;15.52;1.95;;;;;;;;;;4870550;29;20081;-78
2022/11/22 06:07:02;;;;;;;10.85;2.20;;;;;;;;;;4875917;29;20564;-79
2022/11/22 06:09:35;;;;;;;8.90;1.95;;;;;;;;;;4881526;29;20089;-78
2022/11/22 06:12:01;;;;;;;7.75;1.77;;;;;;;;;;4871550;29;20162;-78
2022/11/22 06:14:28;;;;;;;17.73;3.25;;;;;;;;;;4886395;29;20068;-78
2022/11/22 06:16:54;;;;;;;13.68;1.98;;;;;;;;;;4870511;29;20160;-78
2022/11/22 06:19:20;;;;;;;12.75;2.03;;;;;;;;;;4869671;29;20117;-77
2022/11/22 06:21:46;;;;;;;8.85;1.60;;;;;;;;;;4866651;29;20439;-79
2022/11/22 06:24:13;;;;;;;10.90;2.33;;;;;;;;;;4871976;29;20060;-78
2022/11/22 06:26:39;;;;;;;15.60;2.67;;;;;;;;;;4868950;29;20223;-78
2022/11/22 06:29:05;;;;;;;14.10;2.72;;;;;;;;;;4882332;29;20136;-78
2022/11/22 06:31:32;;;;;;;12.52;2.63;;;;;;;;;;4869108;29;20113;-78
2022/11/22 06:33:59;;;;;;;10.00;1.90;;;;;;;;;;4890397;29;20060;-79
2022/11/22 06:36:27;;;;;;;8.35;1.90;;;;;;;;;;4891996;29;20132;-78
2022/11/22 06:38:53;;;;;;;7.72;1.80;;;;;;;;;;4893343;29;20097;-78
2022/11/22 06:41:21;;;;;;;12.73;2.17;;;;;;;;;;4890891;29;20816;-78
2022/11/22 06:43:48;;;;;;;10.63;2.38;;;;;;;;;;4875071;29;20067;-78
2022/11/22 06:46:16;;;;;;;11.27;1.95;;;;;;;;;;4873395;29;20057;-78
2022/11/22 06:48:42;;;;;;;9.15;1.73;;;;;;;;;;4875622;29;20099;-78
2022/11/22 06:51:10;;;;;;;10.95;1.73;;;;;;;;;;4874256;29;20165;-79
2022/11/22 06:53:36;;;;;;;10.30;2.40;;;;;;;;;;4857173;29;20109;-78
2022/11/22 06:56:21;;;;;;;12.48;2.55;;;;;;;;;;4885726;29;20061;-79
2022/11/22 06:58:47;;;;;;;;;;;;;;;;;;4861622;29;20817;-78
2022/11/22 07:01:15;;;;;;;13.98;2.30;;;;;;;;;;4858343;29;48549;-78
2022/11/22 07:03:42;;;;;;;15.13;2.30;;;;;;;;;;4859504;29;20561;-79
2022/11/22 07:06:11;;;;;;;15.52;2.40;;;;;;;;;;4863481;29;20062;-79
2022/11/22 07:08:38;;;;;;;10.23;2.83;;;;;;;;;;4873259;29;20111;-78
2022/11/22 07:11:06;;;;;;;14.90;2.58;;;;;;;;;;4890826;29;20052;-79
2022/11/22 07:13:33;;;;;;;11.75;2.75;;;;;;;;;;4870210;29;20615;-78
2022/11/22 07:16:00;;;;;;;14.38;3.65;;;;;;;;;;4883029;29;20069;-79
2022/11/22 07:18:27;;;;;;;9.63;2.38;;;;;;;;;;4858397;29;20053;-79
2022/11/22 07:21:04;;;;;;;13.65;2.78;;;;;;;;;;4870548;29;20525;-79
2022/11/22 07:23:38;;;;;;;9.95;3.15;;;;;;;;;;4870273;29;20069;-79
2022/11/22 07:26:04;;;;;;;13.73;3.25;;;;;;;;;;4872725;29;20057;-79
2022/11/22 07:28:31;;;;;;;12.50;2.28;;;;;;;;;;4879446;29;20064;-79
2022/11/22 07:30:58;;;;;;;14.02;4.00;;;;;;;;;;4883438;29;20057;-79
2022/11/22 07:33:24;;;;;;;8.70;2.40;;;;;;;;;;4861001;29;20057;-79
2022/11/22 07:35:50;;;;;;;11.38;3.53;;;;;;;;;;4867149;29;20061;-79
2022/11/22 07:38:17;;;;;;;15.07;3.60;;;;;;;;;;4866504;29;20060;-79
2022/11/22 07:40:43;;;;;;;15.48;3.50;;;;;;;;;;4885020;29;20057;-79
2022/11/22 07:43:09;;;;;;;12.23;2.95;;;;;;;;;;4873072;29;20076;-79
2022/11/22 07:45:36;;;;;;;12.90;3.10;;;;;;;;;;4870875;29;20145;-79
2022/11/22 07:48:02;;;;;;;10.48;2.78;;;;;;;;;;4888197;29;20053;-80
2022/11/22 07:50:29;;;;;;;17.52;4.00;;;;;;;;;;4869712;29;20067;-79
2022/11/22 07:52:58;;;;;;;8.90;3.10;;;;;;;;;;4859165;29;20065;-79
2022/11/22 07:55:25;;;;;;;15.32;2.83;;;;;;;;;;4879937;29;21058;-79
2022/11/22 07:57:52;;;;;;;9.35;2.67;;;;;;;;;;4866366;29;20050;-79
2022/11/22 08:00:19;;;;;;;11.88;3.15;;;;;;;;;;4873428;29;20961;-79
2022/11/22 08:02:45;;;;;;;17.80;3.78;;;;;;;;;;4888939;29;20053;-78
2022/11/22 08:05:12;;;;;;;17.85;3.25;;;;;;;;;;4869426;29;20057;-78
2022/11/22 08:07:38;;;;;;;12.23;2.90;;;;;;;;;;4885955;29;20061;-78
2022/11/22 08:10:05;;;;;;;12.52;3.55;;;;;;;;;;4870524;29;20088;-78
2022/11/22 08:12:31;;;;;;;14.95;3.85;;;;;;;;;;4881090;29;20061;-78
2022/11/22 08:14:57;;;;;;;10.70;3.03;;;;;;;;;;4886016;29;20072;-79
2022/11/22 08:17:24;;;;;;;12.57;3.10;;;;;;;;;;4872403;29;20056;-78
2022/11/22 08:19:52;;;;;;;12.95;3.45;;;;;;;;;;4886279;29;20080;-78
2022/11/22 08:22:18;;;;;;;12.63;4.03;;;;;;;;;;4888999;29;20057;-78
2022/11/22 08:24:45;;;;;;;15.32;3.53;;;;;;;;;;4876912;29;20959;-77
2022/11/22 08:27:11;;;;;;;12.80;3.17;;;;;;;;;;4879211;29;20811;-78
2022/11/22 08:29:37;;;;;;;8.70;2.80;;;;;;;;;;4901396;29;20067;-78
2022/11/22 08:32:04;;;;;;;12.57;2.97;;;;;;;;;;4876389;29;20092;-78
2022/11/22 08:34:30;;;;;;;8.30;2.20;;;;;;;;;;4863443;29;20062;-78
2022/11/22 08:36:56;;;;;;;16.15;3.00;;;;;;;;;;4891036;29;22354;-78
2022/11/22 08:39:23;;;;;;;15.90;3.72;;;;;;;;;;4884418;29;20057;-78
2022/11/22 08:41:49;;;;;;;8.98;2.65;;;;;;;;;;4862450;29;20064;-78
2022/11/22 08:44:15;;;;;;;8.48;2.70;;;;;;;;;;4873054;29;20064;-78
2022/11/22 08:46:42;;;;;;;13.10;2.60;;;;;;;;;;4856986;29;20064;-78
2022/11/22 08:49:11;;;;;;;12.75;3.15;;;;;;;;;;4880513;29;20069;-78
2022/11/22 08:51:43;;;;;;;10.25;2.90;;;;;;;;;;4873518;29;20653;-78
2022/11/22 08:54:12;;;;;;;7.75;2.42;;;;;;;;;;4872509;29;20508;-78
2022/11/22 08:56:39;;;;;;;10.88;2.60;;;;;;;;;;4873311;29;20795;-78
2022/11/22 08:59:06;;;;;;;11.65;2.75;;;;;;;;;;4871877;29;20463;-78
2022/11/22 09:01:33;;;;;;;11.57;2.58;;;;;;;;;;4875158;29;20088;-78
2022/11/22 09:03:59;;;;;;;9.98;3.00;;;;;;;;;;4868252;29;20072;-79
2022/11/22 09:06:25;;;;;;;9.57;3.00;;;;;;;;;;4865288;29;20049;-79
2022/11/22 09:09:12;;;;;;;8.00;2.65;;;;;;;;;;4877886;29;20042;-78
2022/11/22 09:11:58;;;;;;;9.40;2.65;;;;;;;;;;4875923;29;20060;-78
2022/11/22 09:14:24;;;;;;;11.95;3.17;;;;;;;;;;4881486;29;20156;-78
2022/11/22 09:16:51;;;;;;;8.48;2.00;;;;;;;;;;4870561;29;20053;-78
2022/11/22 09:19:17;;;;;;;10.38;2.53;;;;;;;;;;4877820;29;20064;-78
2022/11/22 09:21:44;;;;;;;7.60;2.33;;;;;;;;;;4873960;29;20065;-78
2022/11/22 09:24:10;;;;;;;10.95;2.40;;;;;;;;;;4873260;29;20071;-78
2022/11/22 09:26:37;;;;;;;7.00;2.00;;;;;;;;;;4882805;29;20572;-78
2022/11/22 09:29:04;;;;;;;9.48;2.60;;;;;;;;;;4885484;29;20093;-78
2022/11/22 09:31:30;;;;;;;9.90;2.58;;;;;;;;;;4870634;29;20136;-79
2022/11/22 09:33:56;;;;;;;11.45;2.92;;;;;;;;;;4883609;29;20169;-78
2022/11/22 09:36:26;;;;;;;10.38;2.80;;;;;;;;;;4891023;29;20052;-78
2022/11/22 09:38:54;;;;;;;9.70;2.40;;;;;;;;;;4877995;29;20164;-78
2022/11/22 09:41:21;;;;;;;11.88;2.88;;;;;;;;;;4873384;29;20064;-78
2022/11/22 09:44:06;;;;;;;8.07;2.58;;;;;;;;;;4869464;29;20117;-78
2022/11/22 09:46:39;;;;;;;9.30;2.58;;;;;;;;;;4891359;29;20091;-79
2022/11/22 09:49:24;;;;;;;7.82;2.53;;;;;;;;;;4872422;29;20052;-79
2022/11/22 09:52:01;;;;;;;10.20;2.80;;;;;;;;;;4888643;29;20491;-78
2022/11/22 09:54:33;;;;;;;10.55;3.05;;;;;;;;;;4871323;29;20362;-78
2022/11/22 09:57:02;;;;;;;12.27;2.60;;;;;;;;;;4874276;29;20053;-78
2022/11/22 09:59:33;;;;;;;10.32;2.78;;;;;;;;;;4861541;29;20176;-78
2022/11/22 10:01:59;;;;;;;;;;;;;;;;;;4873913;29;20110;-78
2022/11/22 10:04:39;;;;;;;12.32;2.85;;;;;;;;;;4871490;29;46984;-78
2022/11/22 10:07:37;;;;;;;8.75;3.28;;;;;;;;;;4866365;29;20069;-78
2022/11/22 10:10:21;;;;;;;8.52;2.70;;;;;;;;;;4837441;29;20425;-78
2022/11/22 10:12:57;;;;;;;7.25;2.67;;;;;;;;;;4869872;29;20105;-77
2022/11/22 10:15:27;;;;;;;9.75;2.85;;;;;;;;;;4864540;29;20061;-78
2022/11/22 10:17:53;;;;;;;14.48;2.72;;;;;;;;;;4870621;29;20057;-78
2022/11/22 10:20:38;;;;;;;10.32;2.50;;;;;;;;;;4873795;29;21189;-78
2022/11/22 10:23:15;;;;;;;7.85;2.72;;;;;;;;;;4869935;29;20064;-78
2022/11/22 10:25:44;;;;;;;9.77;2.40;;;;;;;;;;4874662;29;20064;-78
2022/11/22 10:28:18;;;;;;;10.27;2.60;;;;;;;;;;4880022;29;20065;-78
2022/11/22 10:30:50;;;;;;;9.93;2.45;;;;;;;;;;4859531;29;20386;-78
2022/11/22 10:33:23;;;;;;;10.73;2.58;;;;;;;;;;4878117;29;20049;-77
2022/11/22 10:35:58;;;;;;;12.00;2.80;;;;;;;;;;4862278;29;20053;-77
2022/11/22 10:38:49;;;;;;;6.22;2.67;;;;;;;;;;4868278;29;20049;-78
2022/11/22 10:41:21;;;;;;;11.70;2.88;;;;;;;;;;4859689;29;20144;-80
2022/11/22 10:43:57;;;;;;;11.20;2.58;;;;;;;;;;4859306;29;20141;-79
2022/11/22 10:46:29;;;;;;;11.35;2.45;;;;;;;;;;4867382;29;20148;-77
2022/11/22 10:49:18;;;;;;;13.15;2.78;;;;;;;;;;4856616;29;20057;-79
2022/11/22 10:51:49;;;;;;;8.60;2.30;;;;;;;;;;4876292;29;20085;-78
2022/11/22 10:54:34;;;;;;;14.15;2.97;;;;;;;;;;4848309;29;20061;-78
2022/11/22 10:57:04;;;;;;;11.43;2.45;;;;;;;;;;4850736;29;20064;-78
2022/11/22 10:59:54;;;;;;;5.28;2.00;;;;;;;;;;4859758;29;20061;-78
2022/11/22 11:02:20;;;;;;;5.00;2.03;;;;;;;;;;4861571;29;20065;-77
2022/11/22 11:04:48;;;;;;;8.35;2.60;;;;;;;;;;4850415;29;20058;-78
2022/11/22 11:07:24;;;;;;;12.73;2.38;;;;;;;;;;4873681;29;20143;-78
2022/11/22 11:09:50;;;;;;;8.57;2.42;;;;;;;;;;4859249;29;20133;-78
2022/11/22 11:12:42;;;;;;;7.95;2.03;;;;;;;;;;4868802;29;20061;-78
2022/11/22 11:15:15;;;;;;;8.07;2.05;;;;;;;;;;4862332;29;20053;-78
2022/11/22 11:17:43;;;;;;;8.77;2.20;;;;;;;;;;4886496;29;20152;-78
2022/11/22 11:20:22;;;;;;;6.70;2.10;;;;;;;;;;4870071;29;20104;-78
2022/11/22 11:22:49;;;;;;;9.23;2.00;;;;;;;;;;4872879;29;20065;-78
2022/11/22 11:25:41;;;;;;;7.55;1.90;;;;;;;;;;4866630;29;20057;-78
2022/11/22 11:28:07;;;;;;;6.18;1.95;;;;;;;;;;4861193;29;20053;-78
2022/11/22 11:30:38;;;;;;;10.57;2.20;;;;;;;;;;4868539;29;20060;-78
2022/11/22 11:33:15;;;;;;;10.80;2.00;;;;;;;;;;4866921;29;20138;-78
2022/11/22 11:35:43;;;;;;;6.32;1.67;;;;;;;;;;4883872;29;20061;-79
2022/11/22 11:38:25;;;;;;;6.22;1.95;;;;;;;;;;4886245;29;20065;-78
2022/11/22 11:40:51;;;;;;;6.15;1.77;;;;;;;;;;4889480;29;20087;-77
2022/11/22 11:43:18;;;;;;;5.93;1.55;;;;;;;;;;4874226;29;20057;-78
2022/11/22 11:45:45;;;;;;;5.32;1.48;;;;;;;;;;4889518;29;20121;-78
2022/11/22 11:48:29;;;;;;;5.93;2.25;;;;;;;;;;4894177;29;20551;-78
2022/11/22 11:51:18;;;;;;;4.32;1.60;;;;;;;;;;4889578;29;20061;-79
2022/11/22 11:53:50;;;;;;;5.53;1.58;;;;;;;;;;4886108;29;20061;-79
2022/11/22 11:56:31;;;;;;;7.70;1.52;;;;;;;;;;4876740;29;20061;-78
2022/11/22 11:59:01;;;;;;;4.95;1.60;;;;;;;;;;4866525;29;20088;-78
2022/11/22 12:01:31;;;;;;;4.50;1.50;;;;;;;;;;4877701;29;20084;-78
2022/11/22 12:04:05;;;;;;;4.10;1.58;;;;;;;;;;4890989;29;20500;-78
2022/11/22 12:06:31;;;;;;;8.07;1.90;;;;;;;;;;4868498;29;20082;-78
2022/11/22 12:08:58;;;;;;;5.43;1.73;;;;;;;;;;4872463;29;20866;-78
2022/11/22 12:11:29;;;;;;;5.47;1.58;;;;;;;;;;4891659;29;20057;-78
2022/11/22 12:13:57;;;;;;;6.18;1.60;;;;;;;;;;4885923;29;20084;-78
2022/11/22 12:16:46;;;;;;;6.70;1.77;;;;;;;;;;4892386;29;20308;-78
2022/11/22 12:19:31;;;;;;;7.78;1.70;;;;;;;;;;4869089;29;20092;-78
2022/11/22 12:22:16;;;;;;;7.25;1.75;;;;;;;;;;4878115;29;20088;-78
2022/11/22 12:25:27;;;;;;;3.65;1.48;;;;;;;;;;4877050;29;20061;-78
2022/11/22 12:28:18;;;;;;;8.98;1.60;;;;;;;;;;4881102;29;20065;-79
2022/11/22 12:30:47;;;;;;;5.47;1.55;;;;;;;;;;4884082;29;20317;-78
2022/11/22 12:33:19;;;;;;;6.03;1.75;;;;;;;;;;4894947;29;20065;-78
2022/11/22 12:35:47;;;;;;;4.88;1.50;;;;;;;;;;4883085;29;20520;-79
2022/11/22 12:38:18;;;;;;;3.70;1.38;;;;;;;;;;4880886;29;20054;-78
2022/11/22 12:40:47;;;;;;;4.13;1.45;;;;;;;;;;4887850;29;20053;-78
2022/11/22 12:43:17;;;;;;;7.57;1.65;;;;;;;;;;4893615;29;20068;-78
2022/11/22 12:45:47;;;;;;;5.18;1.58;;;;;;;;;;4875314;29;20836;-78
2022/11/22 12:48:17;;;;;;;4.15;1.52;;;;;;;;;;4886676;29;20057;-78
2022/11/22 12:50:46;;;;;;;3.75;1.40;;;;;;;;;;4890727;29;20298;-78
2022/11/22 12:53:13;;;;;;;9.93;1.73;;;;;;;;;;4886660;29;20143;-78
2022/11/22 12:55:46;;;;;;;3.38;1.23;;;;;;;;;;4876828;29;20067;-79
2022/11/22 12:58:45;;;;;;;5.90;1.63;;;;;;;;;;4890250;29;20131;-78
2022/11/22 13:01:16;;;;;;;3.83;1.45;;;;;;;;;;4873147;29;20056;-78
2022/11/22 13:03:42;;;;;;;5.18;1.38;;;;;;;;;;4871449;29;20835;-78
2022/11/22 13:06:09;;;;;;;4.38;1.42;;;;;;;;;;4879295;29;20061;-78
2022/11/22 13:08:35;;;;;;;4.40;1.30;;;;;;;;;;4881246;29;20061;-79
2022/11/22 13:11:12;;;;;;;4.65;1.40;;;;;;;;;;4887719;29;20902;-79
2022/11/22 13:13:41;;;;;;;5.70;1.30;;;;;;;;;;4884111;29;20157;-79
2022/11/22 13:16:08;;;;;;;3.70;1.40;;;;;;;;;;4857726;29;20068;-78
2022/11/22 13:18:37;;;;;;;3.85;1.23;;;;;;;;;;4884003;29;20088;-78
2022/11/22 13:21:22;;;;;;;5.25;2.17;;;;;;;;;;4871843;29;20068;-78
2022/11/22 13:23:51;;;;;;;4.13;1.40;;;;;;;;;;4888126;29;20061;-79
2022/11/22 13:26:21;;;;;;;4.97;1.23;;;;;;;;;;4883174;29;20085;-78
2022/11/22 13:28:49;;;;;;;3.42;1.20;;;;;;;;;;4893287;29;20068;-78
2022/11/22 13:31:17;;;;;;;4.03;1.27;;;;;;;;;;4885324;29;20521;-79
2022/11/22 13:33:56;;;;;;;4.18;1.50;;;;;;;;;;4906939;29;20500;-78
2022/11/22 13:36:26;;;;;;;3.58;1.00;;;;;;;;;;4901917;29;20067;-79
2022/11/22 13:38:57;;;;;;;3.47;1.05;;;;;;;;;;4859045;29;20499;-79
2022/11/22 13:41:26;;;;;;;2.83;1.10;;;;;;;;;;4887571;29;20045;-78
2022/11/22 13:43:56;;;;;;;4.90;1.10;;;;;;;;;;4875636;29;20093;-78
2022/11/22 13:47:03;;;;;;;5.00;1.23;;;;;;;;;;4888419;29;20057;-78
2022/11/22 13:49:31;;;;;;;3.22;1.15;;;;;;;;;;4832805;29;20631;-78
2022/11/22 13:52:24;;;;;;;3.63;1.30;;;;;;;;;;4839222;29;20152;-79
2022/11/22 13:54:55;;;;;;;3.17;1.00;;;;;;;;;;4870762;29;20061;-79
2022/11/22 13:57:28;;;;;;;3.70;1.00;;;;;;;;;;4890974;29;20061;-78
2022/11/22 14:00:18;;;;;;;5.22;1.00;;;;;;;;;;4895728;29;20531;-78
2022/11/22 14:03:04;;;;;;;2.72;1.00;;;;;;;;;;4877822;29;20045;-79
2022/11/22 14:05:31;;;;;;;2.83;1.02;;;;;;;;;;4883283;29;20063;-79
2022/11/22 14:08:05;;;;;;;5.78;1.10;;;;;;;;;;4886025;29;20061;-79
2022/11/22 14:10:33;;;;;;;3.92;1.10;;;;;;;;;;4874717;29;20061;-79
2022/11/22 14:13:18;;;;;;;5.75;1.40;;;;;;;;;;4862638;29;20077;-78
2022/11/22 14:15:45;;;;;;;2.70;0.80;;;;;;;;;;4884293;29;20062;-79
2022/11/22 14:18:14;;;;;;;3.80;1.02;;;;;;;;;;4881824;29;20052;-79
2022/11/22 14:20:46;;;;;;;4.82;1.02;;;;;;;;;;4895372;29;20057;-79
2022/11/22 14:23:16;;;;;;;3.13;0.93;;;;;;;;;;4884338;29;20060;-79
2022/11/22 14:25:48;;;;;;;5.15;2.35;;;;;;;;;;4873309;29;20065;-79
2022/11/22 14:28:38;;;;;;;3.25;1.10;;;;;;;;;;4871276;29;20059;-79
2022/11/22 14:31:13;;;;;;;2.40;0.90;;;;;;;;;;4883727;29;20060;-79
2022/11/22 14:33:59;;;;;;;3.83;1.20;;;;;;;;;;4887235;29;20595;-79
2022/11/22 14:36:25;;;;;;;3.67;1.10;;;;;;;;;;4875402;29;20139;-79
2022/11/22 14:38:52;;;;;;;3.72;1.20;;;;;;;;;;4885098;29;20432;-80
2022/11/22 14:41:27;;;;;;;4.75;0.98;;;;;;;;;;4871839;29;20037;-79
2022/11/22 14:43:59;;;;;;;3.30;1.02;;;;;;;;;;4891400;29;20075;-79
2022/11/22 14:46:27;;;;;;;3.65;0.90;;;;;;;;;;4877277;29;20140;-79
2022/11/22 14:49:17;;;;;;;4.00;1.15;;;;;;;;;;4881049;29;20054;-79
2022/11/22 14:51:44;;;;;;;2.83;0.90;;;;;;;;;;4874865;29;20088;-79
2022/11/22 14:54:20;;;;;;;3.65;0.90;;;;;;;;;;4865446;29;20053;-80
2022/11/22 14:56:47;;;;;;;3.03;0.80;;;;;;;;;;4877257;29;20787;-79
2022/11/22 14:59:13;;;;;;;3.13;1.00;;;;;;;;;;4864168;29;20648;-79
2022/11/22 15:01:58;;;;;;;17.55;7.57;;;;;;;;;;4885342;29;20041;-79
2022/11/22 15:04:38;;;;;;;19.48;6.53;;;;;;;;;;4879973;29;20900;-79